createdAt,value
2024-03-11T00:00:22.626Z,16.17
2024-03-11T00:02:50.756Z,16.58
2024-03-11T00:05:17.512Z,15.52
2024-03-11T00:07:46.576Z,15.73
2024-03-11T00:10:16.526Z,13.77
2024-03-11T00:12:50.449Z,14.23
2024-03-11T00:15:17.974Z,15.68
2024-03-11T00:17:44.464Z,16.52
2024-03-11T00:20:11.495Z,22.05
2024-03-11T00:25:09.972Z,19.10
2024-03-11T00:27:37.996Z,13.55
2024-03-11T00:30:09.549Z,15.27
2024-03-11T00:32:46.668Z,14.57
2024-03-11T00:35:15.509Z,13.88
2024-03-11T00:37:42.347Z,13.68
2024-03-11T00:40:09.355Z,15.30
2024-03-11T00:42:36.195Z,15.73
2024-03-11T00:45:03.676Z,16.73
2024-03-11T00:47:30.313Z,12.88
2024-03-11T00:49:59.188Z,13.85
2024-03-11T00:52:26.222Z,15.48
2024-03-11T00:57:21.379Z,11.80
2024-03-11T00:59:47.951Z,14.80
2024-03-11T01:02:14.500Z,16.00
2024-03-11T01:04:43.351Z,13.15
2024-03-11T01:07:19.959Z,14.13
2024-03-11T01:09:55.719Z,14.63
2024-03-11T01:12:26.407Z,14.98
2024-03-11T01:14:56.207Z,14.68
2024-03-11T01:17:25.219Z,13.23
2024-03-11T01:19:52.005Z,14.05
2024-03-11T01:22:18.432Z,14.50
2024-03-11T01:24:47.368Z,13.60
2024-03-11T01:27:16.302Z,14.18
2024-03-11T01:29:43.105Z,14.00
2024-03-11T01:32:12.854Z,16.95
2024-03-11T01:34:42.182Z,12.95
2024-03-11T01:37:08.852Z,15.63
2024-03-11T01:39:44.734Z,17.42
2024-03-11T01:42:17.242Z,13.60
2024-03-11T01:44:49.715Z,14.32
2024-03-11T01:47:20.489Z,14.00
2024-03-11T01:49:52.270Z,14.00
2024-03-11T01:52:27.488Z,15.90
2024-03-11T01:54:56.831Z,12.65
2024-03-11T01:57:29.877Z,11.40
2024-03-11T01:59:59.145Z,14.52
2024-03-11T02:02:28.470Z,13.55
2024-03-11T02:04:55.177Z,13.13
2024-03-11T02:07:23.548Z,15.43
2024-03-11T02:09:50.011Z,13.63
2024-03-11T02:12:19.231Z,12.95
2024-03-11T02:14:47.182Z,12.23
2024-03-11T02:17:17.019Z,13.93
2024-03-11T02:19:48.983Z,10.88
2024-03-11T02:22:15.620Z,12.88
2024-03-11T02:24:42.079Z,12.13
2024-03-11T02:27:08.835Z,14.20
2024-03-11T02:29:35.418Z,13.90
2024-03-11T02:32:02.043Z,16.98
2024-03-11T02:34:28.777Z,11.30
2024-03-11T02:36:57.070Z,13.52
2024-03-11T02:39:23.536Z,9.85
2024-03-11T02:41:52.883Z,15.73
2024-03-11T02:44:19.448Z,13.25
2024-03-11T02:46:46.156Z,20.13
2024-03-11T02:49:14.031Z,15.05
2024-03-11T02:51:41.300Z,14.50
2024-03-11T02:54:09.973Z,13.02
2024-03-11T02:56:36.973Z,14.88
2024-03-11T02:59:03.559Z,12.38
2024-03-11T03:01:30.060Z,15.25
2024-03-11T03:03:56.547Z,14.43
2024-03-11T03:06:23.016Z,10.48
2024-03-11T03:08:49.602Z,12.68
2024-03-11T03:11:16.387Z,15.15
2024-03-11T03:13:42.841Z,15.90
2024-03-11T03:16:11.772Z,13.25
2024-03-11T03:18:38.266Z,13.00
2024-03-11T03:21:05.081Z,14.25
2024-03-11T03:23:33.749Z,12.88
2024-03-11T03:26:00.251Z,15.45
2024-03-11T03:28:26.683Z,11.98
2024-03-11T03:30:54.956Z,15.13
2024-03-11T03:33:22.230Z,14.20
2024-03-11T03:35:52.204Z,14.60
2024-03-11T03:38:18.641Z,11.95
2024-03-11T03:40:45.157Z,14.35
2024-03-11T03:43:11.581Z,12.93
2024-03-11T03:45:38.096Z,12.43
2024-03-11T03:48:05.012Z,13.93
2024-03-11T03:50:31.600Z,15.05
2024-03-11T03:52:59.621Z,11.48
2024-03-11T03:55:26.083Z,13.07
2024-03-11T03:57:54.866Z,12.70
2024-03-11T04:00:21.873Z,13.98
2024-03-11T04:02:52.977Z,15.10
2024-03-11T04:05:22.971Z,13.48
2024-03-11T04:07:50.095Z,12.40
2024-03-11T04:12:49.028Z,12.98
2024-03-11T04:15:19.046Z,16.40
2024-03-11T04:17:48.814Z,13.50
2024-03-11T04:20:16.717Z,12.68
2024-03-11T04:22:47.086Z,14.90
2024-03-11T04:25:20.691Z,13.15
2024-03-11T04:27:48.720Z,13.30
2024-03-11T04:30:20.403Z,14.93
2024-03-11T04:32:53.463Z,14.30
2024-03-11T04:35:26.770Z,15.75
2024-03-11T04:40:20.265Z,15.73
2024-03-11T04:42:47.404Z,15.55
2024-03-11T04:47:40.670Z,12.50
2024-03-11T04:50:11.876Z,13.52
2024-03-11T04:52:40.965Z,15.40
2024-03-11T04:55:07.857Z,11.85
2024-03-11T04:57:36.874Z,13.30
2024-03-11T05:00:05.991Z,13.13
2024-03-11T05:02:36.548Z,14.13
2024-03-11T05:05:04.424Z,11.50
2024-03-11T05:07:32.570Z,13.93
2024-03-11T05:10:01.972Z,12.60
2024-03-11T05:12:29.220Z,13.20
2024-03-11T05:14:55.946Z,12.23
2024-03-11T05:17:22.479Z,12.98
2024-03-11T05:19:49.694Z,19.88
2024-03-11T05:24:45.292Z,13.70
2024-03-11T05:27:12.025Z,16.40
2024-03-11T05:29:40.976Z,13.07
2024-03-11T05:32:10.053Z,13.65
2024-03-11T05:34:36.589Z,13.00
2024-03-11T05:37:07.831Z,14.95
2024-03-11T05:39:35.207Z,14.52
2024-03-11T05:42:06.473Z,15.45
2024-03-11T05:44:35.220Z,13.85
2024-03-11T05:47:02.350Z,13.30
2024-03-11T05:51:59.943Z,11.90
2024-03-11T05:54:26.456Z,16.65
2024-03-11T05:56:57.768Z,12.25
2024-03-11T05:59:27.840Z,13.95
2024-03-11T06:01:58.730Z,15.02
2024-03-11T06:04:28.308Z,14.23
2024-03-11T06:06:55.338Z,14.63
2024-03-11T06:11:51.448Z,13.65
2024-03-11T06:14:20.458Z,13.55
2024-03-11T06:16:46.903Z,12.85
2024-03-11T06:19:18.987Z,11.63
2024-03-11T06:21:45.444Z,14.65
2024-03-11T06:24:12.459Z,13.57
2024-03-11T06:26:39.306Z,14.05
2024-03-11T06:29:09.749Z,12.43
2024-03-11T06:31:38.177Z,16.00
2024-03-11T06:34:07.848Z,14.25
2024-03-11T06:36:35.436Z,12.70
2024-03-11T06:39:02.173Z,15.13
2024-03-11T06:41:28.696Z,18.30
2024-03-11T06:43:55.313Z,15.85
2024-03-11T06:46:23.034Z,16.10
2024-03-11T06:48:50.216Z,14.02
2024-03-11T06:51:16.841Z,16.15
2024-03-11T06:53:47.895Z,12.90
2024-03-11T06:56:14.640Z,15.10
2024-03-11T06:58:41.071Z,15.43
2024-03-11T07:01:08.469Z,14.63
2024-03-11T07:03:39.005Z,13.63
2024-03-11T07:06:06.059Z,17.42
2024-03-11T07:11:03.796Z,11.52
2024-03-11T07:13:33.258Z,13.45
2024-03-11T07:15:59.889Z,14.13
2024-03-11T07:18:27.628Z,14.10
2024-03-11T07:20:56.677Z,15.20
2024-03-11T07:23:23.373Z,13.00
2024-03-11T07:25:52.161Z,13.27
2024-03-11T07:28:19.058Z,14.40
2024-03-11T07:30:47.023Z,16.85
2024-03-11T07:33:16.386Z,14.38
2024-03-11T07:35:43.356Z,14.25
2024-03-11T07:38:10.765Z,15.55
2024-03-11T07:40:38.481Z,12.80
2024-03-11T07:43:08.085Z,13.90
2024-03-11T07:45:39.033Z,13.85
2024-03-11T07:48:07.104Z,16.52
2024-03-11T07:50:33.745Z,13.75
2024-03-11T07:53:00.535Z,16.80
2024-03-11T07:55:29.959Z,14.35
2024-03-11T07:58:02.096Z,13.98
2024-03-11T08:00:32.432Z,13.25
2024-03-11T08:03:00.157Z,13.50
2024-03-11T08:05:28.554Z,12.45
2024-03-11T08:07:55.189Z,13.25
2024-03-11T08:10:22.082Z,15.32
2024-03-11T08:15:21.765Z,15.50
2024-03-11T08:17:50.360Z,17.77
2024-03-11T08:20:25.100Z,15.13
2024-03-11T08:22:54.029Z,18.77
2024-03-11T08:25:24.093Z,18.10
2024-03-11T08:27:53.623Z,19.92
2024-03-11T08:30:22.428Z,17.50
2024-03-11T08:32:54.172Z,18.17
2024-03-11T08:35:24.517Z,17.45
2024-03-11T08:37:51.547Z,21.60
2024-03-11T08:42:51.303Z,21.30
2024-03-11T08:45:23.881Z,22.33
2024-03-11T08:47:51.362Z,21.98
2024-03-11T08:52:46.936Z,22.13
2024-03-11T08:55:14.796Z,21.45
2024-03-11T08:57:44.161Z,22.85
2024-03-11T09:00:12.705Z,22.08
2024-03-11T09:02:40.254Z,25.45
2024-03-11T09:05:19.944Z,21.25
2024-03-11T09:07:48.788Z,20.73
2024-03-11T09:10:15.789Z,20.58
2024-03-11T09:12:43.637Z,21.88
2024-03-11T09:15:17.647Z,23.83
2024-03-11T09:17:47.351Z,23.25
2024-03-11T09:20:17.771Z,22.23
2024-03-11T09:22:48.332Z,23.20
2024-03-11T09:25:27.886Z,24.33
2024-03-11T09:28:03.050Z,24.42
2024-03-11T09:30:39.246Z,22.58
2024-03-11T09:33:12.543Z,22.83
2024-03-11T09:35:39.200Z,21.63
2024-03-11T09:38:05.764Z,22.10
2024-03-11T09:40:32.709Z,23.08
2024-03-11T09:45:32.149Z,20.15
2024-03-11T09:48:00.589Z,19.85
2024-03-11T09:50:31.665Z,18.25
2024-03-11T09:53:04.498Z,19.75
2024-03-11T09:55:32.065Z,16.63
2024-03-11T09:58:03.536Z,22.23
2024-03-11T10:00:34.312Z,19.27
2024-03-11T10:03:07.111Z,21.55
2024-03-11T10:05:33.682Z,21.10
2024-03-11T10:08:01.002Z,19.75
2024-03-11T10:10:30.614Z,20.02
2024-03-11T10:13:06.137Z,18.52
2024-03-11T10:15:35.781Z,19.23
2024-03-11T10:18:16.292Z,18.30
2024-03-11T10:20:45.118Z,14.18
2024-03-11T10:23:11.754Z,16.20
2024-03-11T10:25:41.808Z,18.48
2024-03-11T10:28:08.636Z,19.08
2024-03-11T10:30:39.298Z,19.15
2024-03-11T10:33:09.931Z,18.55
2024-03-11T10:35:36.606Z,17.98
2024-03-11T10:38:13.748Z,17.23
2024-03-11T10:40:40.474Z,24.15
2024-03-11T10:43:20.965Z,22.13
2024-03-11T10:45:49.880Z,15.20
2024-03-11T10:48:19.341Z,17.27
2024-03-11T10:50:46.084Z,19.23
2024-03-11T10:53:27.681Z,18.65
2024-03-11T10:55:59.987Z,15.32
2024-03-11T10:58:29.936Z,16.25
2024-03-11T11:01:01.825Z,17.95
2024-03-11T11:03:31.399Z,17.02
2024-03-11T11:06:02.986Z,15.65
2024-03-11T11:08:38.160Z,15.02
2024-03-11T11:11:06.227Z,15.55
2024-03-11T11:13:34.431Z,17.63
2024-03-11T11:16:04.645Z,17.23
2024-03-11T11:18:39.999Z,17.98
2024-03-11T11:21:11.650Z,14.85
2024-03-11T11:23:39.884Z,17.45
2024-03-11T11:26:06.313Z,14.18
2024-03-11T11:28:38.667Z,12.75
2024-03-11T11:31:26.760Z,13.90
2024-03-11T11:34:01.116Z,12.18
2024-03-11T11:36:30.680Z,13.10
2024-03-11T11:39:18.725Z,12.93
2024-03-11T11:41:47.145Z,14.38
2024-03-11T11:44:30.329Z,11.73
2024-03-11T11:47:10.583Z,14.10
2024-03-11T11:49:41.228Z,13.65
2024-03-11T11:52:09.349Z,7.68
2024-03-11T11:54:37.793Z,11.65
2024-03-11T11:57:07.293Z,9.13
2024-03-11T11:59:34.422Z,10.80
2024-03-11T12:02:01.525Z,8.80
2024-03-11T12:04:29.404Z,8.38
2024-03-11T12:06:59.554Z,9.48
2024-03-11T12:09:26.246Z,8.43
2024-03-11T12:11:57.023Z,7.05
2024-03-11T12:14:23.781Z,8.38
2024-03-11T12:16:50.276Z,8.85
2024-03-11T12:19:18.005Z,7.18
2024-03-11T12:21:45.483Z,5.78
2024-03-11T12:24:15.739Z,6.43
2024-03-11T12:26:48.570Z,6.63
2024-03-11T12:29:16.762Z,4.72
2024-03-11T12:31:43.503Z,3.85
2024-03-11T12:34:14.754Z,3.92
2024-03-11T12:36:50.115Z,5.57
2024-03-11T12:39:35.292Z,3.80
2024-03-11T12:42:09.857Z,4.90
2024-03-11T12:44:37.882Z,5.70
2024-03-11T12:47:06.093Z,4.40
2024-03-11T12:49:33.086Z,3.85
2024-03-11T12:54:39.194Z,3.03
2024-03-11T12:57:15.407Z,5.00
2024-03-11T12:59:43.513Z,2.80
2024-03-11T13:02:22.631Z,3.13
2024-03-11T13:04:54.330Z,3.03
2024-03-11T13:07:24.363Z,3.75
2024-03-11T13:10:00.038Z,3.15
2024-03-11T13:12:30.688Z,3.85
2024-03-11T13:14:57.451Z,4.15
2024-03-11T13:17:24.109Z,3.22
2024-03-11T13:19:57.426Z,1.80
2024-03-11T13:22:23.924Z,2.13
2024-03-11T13:24:52.966Z,1.80
2024-03-11T13:27:20.047Z,1.50
2024-03-11T13:29:49.093Z,2.22
2024-03-11T13:32:16.012Z,2.22
2024-03-11T13:37:12.605Z,2.20
2024-03-11T13:39:42.650Z,2.50
2024-03-11T13:42:16.012Z,1.95
2024-03-11T13:44:42.764Z,2.75
2024-03-11T13:47:15.077Z,2.05
2024-03-11T13:49:45.054Z,2.92
2024-03-11T13:52:12.084Z,2.75
2024-03-11T13:54:40.796Z,2.72
2024-03-11T13:57:10.378Z,2.53
2024-03-11T13:59:37.420Z,2.38
2024-03-11T14:02:04.039Z,2.22
2024-03-11T14:04:30.628Z,2.75
2024-03-11T14:06:57.309Z,3.05
2024-03-11T14:09:26.313Z,2.40
2024-03-11T14:11:53.917Z,1.60
2024-03-11T14:14:20.707Z,2.40
2024-03-11T14:16:50.263Z,2.03
2024-03-11T14:19:20.226Z,1.77
2024-03-11T14:21:52.786Z,1.60
2024-03-11T14:24:20.392Z,1.90
2024-03-11T14:26:46.888Z,1.92
2024-03-11T14:29:15.902Z,1.92
2024-03-11T14:31:46.117Z,2.50
2024-03-11T14:34:13.597Z,2.40
2024-03-11T14:36:40.241Z,1.60
2024-03-11T14:39:18.831Z,2.75
2024-03-11T14:41:47.145Z,6.05
2024-03-11T14:44:18.522Z,2.72
2024-03-11T14:46:56.714Z,1.90
2024-03-11T14:49:25.901Z,2.13
2024-03-11T14:51:54.675Z,2.65
2024-03-11T14:54:27.524Z,2.33
2024-03-11T14:56:57.757Z,2.53
2024-03-11T14:59:32.511Z,2.70
2024-03-11T15:02:00.019Z,2.30
2024-03-11T15:04:29.712Z,2.13
2024-03-11T15:06:56.698Z,2.28
2024-03-11T15:09:23.834Z,2.65
2024-03-11T15:11:53.988Z,4.82
2024-03-11T15:14:23.664Z,2.65
2024-03-11T15:16:57.694Z,2.13
2024-03-11T15:19:25.229Z,2.65
2024-03-11T15:21:52.621Z,2.97
2024-03-11T15:24:22.289Z,4.03
2024-03-11T15:26:49.084Z,2.80
2024-03-11T15:29:15.648Z,3.17
2024-03-11T15:31:44.927Z,2.63
2024-03-11T15:34:16.593Z,2.65
2024-03-11T15:36:43.430Z,2.15
2024-03-11T15:39:09.894Z,2.58
2024-03-11T15:41:36.466Z,3.22
2024-03-11T15:44:05.840Z,2.10
2024-03-11T15:46:32.245Z,2.25
2024-03-11T15:49:01.188Z,4.53
2024-03-11T15:51:28.794Z,4.05
2024-03-11T15:53:55.385Z,3.35
2024-03-11T15:56:24.900Z,2.53
2024-03-11T15:58:51.644Z,2.58
2024-03-11T16:01:24.439Z,3.10
2024-03-11T16:03:56.940Z,2.55
2024-03-11T16:06:23.679Z,2.47
2024-03-11T16:08:52.063Z,2.50
2024-03-11T16:11:18.535Z,3.13
2024-03-11T16:13:46.188Z,1.92
2024-03-11T16:16:14.963Z,2.22
2024-03-11T16:18:43.741Z,2.55
2024-03-11T16:21:10.272Z,3.17
2024-03-11T16:23:39.010Z,3.63
2024-03-11T16:26:05.497Z,6.38
2024-03-11T16:28:33.934Z,2.58
2024-03-11T16:31:00.564Z,2.50
2024-03-11T16:33:28.978Z,2.78
2024-03-11T16:35:56.049Z,2.13
2024-03-11T16:38:25.027Z,2.40
2024-03-11T16:40:53.872Z,3.88
2024-03-11T16:43:22.569Z,2.83
2024-03-11T16:45:50.206Z,4.40
2024-03-11T16:48:19.315Z,2.47
2024-03-11T16:50:49.415Z,2.78
2024-03-11T16:53:18.490Z,1.90
2024-03-11T16:55:47.261Z,2.45
2024-03-11T16:58:16.393Z,4.40
2024-03-11T17:00:44.186Z,5.43
2024-03-11T17:03:10.800Z,3.00
2024-03-11T17:05:40.063Z,2.72
2024-03-11T17:08:09.771Z,2.83
2024-03-11T17:10:37.031Z,2.63
2024-03-11T17:13:08.475Z,4.30
2024-03-11T17:15:36.396Z,2.80
2024-03-11T17:18:04.055Z,3.53
2024-03-11T17:20:45.685Z,2.90
2024-03-11T17:23:17.760Z,3.25
2024-03-11T17:25:50.619Z,2.00
2024-03-11T17:28:21.621Z,3.88
2024-03-11T17:30:53.889Z,2.53
2024-03-11T17:33:23.388Z,6.80
2024-03-11T17:35:51.000Z,3.45
2024-03-11T17:38:19.995Z,3.30
2024-03-11T17:40:49.874Z,3.17
2024-03-11T17:43:18.241Z,3.70
2024-03-11T17:45:45.973Z,4.47
2024-03-11T17:48:17.280Z,3.75
2024-03-11T17:50:44.953Z,3.92
2024-03-11T17:53:14.725Z,3.38
2024-03-11T17:55:42.398Z,3.13
2024-03-11T17:58:16.771Z,4.43
2024-03-11T18:00:44.450Z,3.63
2024-03-11T18:03:11.539Z,3.70
2024-03-11T18:05:41.790Z,4.80
2024-03-11T18:08:11.029Z,4.78
2024-03-11T18:10:41.978Z,8.68
2024-03-11T18:13:15.990Z,8.63
2024-03-11T18:15:44.240Z,6.45
2024-03-11T18:18:11.676Z,5.15
2024-03-11T18:20:41.262Z,6.15
2024-03-11T18:23:13.043Z,6.55
2024-03-11T18:25:40.387Z,7.43
2024-03-11T18:28:09.078Z,5.00
2024-03-11T18:30:39.164Z,4.15
2024-03-11T18:33:08.296Z,3.50
2024-03-11T18:35:38.467Z,4.45
2024-03-11T18:38:08.362Z,7.50
2024-03-11T18:40:35.194Z,5.85
2024-03-11T18:43:02.478Z,3.95
2024-03-11T18:48:01.447Z,5.43
2024-03-11T18:50:28.758Z,3.85
2024-03-11T18:53:00.276Z,4.57
2024-03-11T18:55:30.573Z,15.55
2024-03-11T18:57:57.929Z,8.07
2024-03-11T19:00:27.727Z,6.85
2024-03-11T19:02:58.059Z,9.15
2024-03-11T19:05:25.504Z,12.52
2024-03-11T19:07:52.737Z,11.43
2024-03-11T19:10:23.324Z,12.23
2024-03-11T19:12:52.155Z,12.45
2024-03-11T19:15:21.323Z,9.80
2024-03-11T19:17:50.270Z,12.65
2024-03-11T19:20:18.297Z,13.35
2024-03-11T19:22:46.716Z,12.55
2024-03-11T19:25:19.243Z,8.25
2024-03-11T19:27:52.533Z,6.95
2024-03-11T19:30:23.410Z,8.50
2024-03-11T19:32:52.028Z,8.38
2024-03-11T19:35:21.185Z,7.65
2024-03-11T19:38:00.063Z,4.60
2024-03-11T19:40:32.581Z,6.25
2024-03-11T19:43:29.257Z,7.40
2024-03-11T19:46:30.611Z,6.50
2024-03-11T19:49:25.632Z,8.25
2024-03-11T19:52:33.588Z,7.32
2024-03-11T19:55:22.001Z,5.05
2024-03-11T19:58:28.601Z,4.90
2024-03-11T20:01:16.576Z,5.18
2024-03-11T20:04:24.285Z,3.83
2024-03-11T20:07:21.512Z,3.83
2024-03-11T20:10:25.524Z,5.40
2024-03-11T20:13:18.692Z,5.43
2024-03-11T20:15:52.390Z,6.32
2024-03-11T20:19:14.335Z,4.88
2024-03-11T20:21:56.256Z,5.20
2024-03-11T20:24:53.689Z,10.50
2024-03-11T20:30:08.184Z,6.15
2024-03-11T20:32:52.926Z,7.05
2024-03-11T20:35:24.720Z,7.30
2024-03-11T20:37:51.302Z,7.95
2024-03-11T20:40:22.753Z,8.50
2024-03-11T20:42:49.750Z,7.60
2024-03-11T20:45:18.949Z,7.72
2024-03-11T20:47:46.908Z,8.15
2024-03-11T20:50:18.210Z,8.93
2024-03-11T20:52:46.573Z,7.68
2024-03-11T20:55:13.295Z,5.40
2024-03-11T20:57:41.018Z,6.30
2024-03-11T21:00:20.592Z,5.68
2024-03-11T21:02:51.212Z,7.10
2024-03-11T21:05:18.791Z,6.03
2024-03-11T21:07:46.177Z,8.63
2024-03-11T21:10:15.113Z,7.68
2024-03-11T21:12:43.978Z,13.82
2024-03-11T21:15:14.379Z,6.93
2024-03-11T21:17:42.413Z,7.47
2024-03-11T21:20:27.870Z,7.07
2024-03-11T21:23:02.327Z,6.93
2024-03-11T21:25:43.854Z,6.10
2024-03-11T21:28:11.825Z,7.63
2024-03-11T21:30:39.038Z,7.65
2024-03-11T21:33:08.480Z,8.25
2024-03-11T21:35:35.076Z,6.80
2024-03-11T21:38:13.221Z,7.95
2024-03-11T21:40:49.500Z,7.03
2024-03-11T21:43:15.950Z,10.05
2024-03-11T21:45:43.596Z,5.97
2024-03-11T21:48:13.861Z,7.50
2024-03-11T21:50:42.546Z,5.80
2024-03-11T21:53:10.676Z,6.47
2024-03-11T21:55:42.731Z,7.47
2024-03-11T21:58:10.048Z,7.70
2024-03-11T22:00:36.780Z,7.07
2024-03-11T22:03:03.586Z,8.73
2024-03-11T22:05:32.494Z,8.23
2024-03-11T22:07:58.977Z,8.85
2024-03-11T22:10:27.734Z,7.35
2024-03-11T22:12:54.342Z,9.82
2024-03-11T22:15:21.982Z,8.27
2024-03-11T22:17:50.974Z,9.85
2024-03-11T22:20:17.717Z,7.25
2024-03-11T22:22:47.560Z,11.15
2024-03-11T22:25:14.234Z,8.52
2024-03-11T22:27:41.073Z,6.93
2024-03-11T22:30:11.806Z,7.40
2024-03-11T22:32:41.828Z,7.55
2024-03-11T22:35:09.842Z,8.27
2024-03-11T22:37:36.354Z,8.75
2024-03-11T22:40:07.825Z,12.23
2024-03-11T22:42:34.793Z,8.88
2024-03-11T22:45:01.503Z,9.75
2024-03-11T22:47:30.372Z,8.35
2024-03-11T22:49:56.856Z,10.35
2024-03-11T22:52:23.317Z,8.52
2024-03-11T22:54:49.779Z,10.35
2024-03-11T22:57:16.866Z,11.02
2024-03-11T22:59:43.852Z,11.05
2024-03-11T23:02:17.480Z,8.90
2024-03-11T23:04:50.038Z,8.00
2024-03-11T23:07:17.753Z,9.35
2024-03-11T23:09:44.448Z,7.10
2024-03-11T23:12:12.709Z,6.22
2024-03-11T23:14:44.431Z,7.38
2024-03-11T23:17:14.601Z,6.32
2024-03-11T23:19:44.927Z,7.35
2024-03-11T23:22:13.711Z,9.30
2024-03-11T23:24:44.005Z,7.18
2024-03-11T23:27:10.510Z,8.75
2024-03-11T23:29:38.239Z,7.35
2024-03-11T23:32:08.055Z,6.25
2024-03-11T23:34:34.627Z,8.60
2024-03-11T23:37:01.348Z,6.57
2024-03-11T23:39:28.593Z,8.40
2024-03-11T23:41:55.692Z,6.85
2024-03-11T23:44:22.159Z,8.13
2024-03-11T23:46:48.633Z,7.18
2024-03-11T23:49:15.958Z,8.02
2024-03-11T23:51:46.142Z,6.05
2024-03-11T23:54:13.168Z,7.10
2024-03-11T23:56:44.362Z,9.55
2024-03-11T23:59:14.666Z,8.45
